Juneau, Alaska
Current Conditions -  °F | °C
As of 11:08 PM on Sunday 25 Jan 2015 (Local Time) from PAJN Reporting Station
Broken Clouds Broken Clouds  
Wind Chill: 31°   Ceiling: 7000
Heat Index: 35°   Visibility: 10mi
Dew Point: 34°   Wind: 5mph
Humidity: 96%   Direction: 180°S
Pressure: 29.89"   Gusts: NA
Location:  58.37°N, 134.57°W
Report Text: PAJN 260808Z 18004KT 10SM FEW006 SCT048 BKN070 02/01 A2989 RMK AO2 T00170011
Loading
Personal Weather Stations






























Interactive Weather Map New forecast layout! Learn more

10-Day Weather Forecast

Advertisements
Track Severe Weather on mobile